Time;durP1;ratioP1;P1;durP2;ratioP2;P2;SDS_P1;SDS_P2;PMS_P1;PMS_P2;Temp;Humidity;BMP_temperature;BMP_pressure;BME280_temperature;BME280_humidity;BME280_pressure;Samples;Min_cycle;Max_cycle;Signal;HPM_P1;HPM_P2
2021/12/16 00:09:45;;;;;;;;;;;;;;;;;;5011923;28;19924;-68
2021/12/16 00:32:05;;;;;;;;;;;;;;;;;;5083684;28;19935;-68
2021/12/16 00:34:35;;;;;;;;;;;;;;;;;;5073824;28;19928;-68
2021/12/16 00:37:05;;;;;;;;;;;;;;;;;;5080212;28;20337;-67
2021/12/16 00:39:37;;;;;;;;;;;;;;;;;;5073980;28;20367;-67
2021/12/16 00:42:13;;;;;;;;;;;;;;;;;;5088758;28;19927;-67
2021/12/16 00:55:52;;;;;;;;;;;;;;;;;;5083603;28;19928;-68
2021/12/16 00:58:40;;;;;;;;;;;;;;;;;;5085883;28;19924;-68
2021/12/16 01:01:33;;;;;;;;;;;;;;;;;;5085257;28;19924;-68
2021/12/16 01:55:42;;;;;;;;;;;;;;;;;;5081745;28;19924;-68
2021/12/16 01:58:14;;;;;;;;;;;;;;;;;;5077520;28;19924;-68
2021/12/16 02:01:08;;;;;;;;;;;;;;;;;;5080645;28;20350;-68
2021/12/16 02:03:46;;;;;;;;;;;;;;;;;;5082294;28;19924;-68
2021/12/16 02:07:04;;;;;;;;;;;;;;;;;;5085793;28;19928;-68
2021/12/16 02:09:16;;;;;;;;;;;;;;;;;;5079904;28;20289;-68
2021/12/16 02:11:58;;;;;;;;;;;;;;;;;;5086763;28;20242;-68
2021/12/16 02:36:47;;;;;;;;;;;;;;;;;;5077907;28;19924;-68
2021/12/16 02:39:19;;;;;;;;;;;;;;;;;;5083086;28;20567;-68
2021/12/16 02:41:52;;;;;;;;;;;;;;;;;;5076430;28;19928;-68
2021/12/16 02:44:36;;;;;;;;;;;;;;;;;;5089813;28;19925;-68
2021/12/16 02:49:56;;;;;;;;;;;;;;;;;;5084343;28;19928;-68
2021/12/16 02:52:28;;;;;;;;;;;;;;;;;;5087459;28;19935;-68
2021/12/16 02:55:01;;;;;;;;;;;;;;;;;;5085830;28;19924;-68
2021/12/16 02:57:37;;;;;;;;;;;;;;;;;;5082840;28;19969;-68
2021/12/16 03:00:15;;;;;;;;;;;;;;;;;;5084357;28;20342;-68
2021/12/16 03:02:49;;;;;;;;;;;;;;;;;;5083958;28;20300;-68
2021/12/16 03:05:20;;;;;;;;;;;;;;;;;;5078711;28;20095;-68
2021/12/16 03:07:56;;;;;;;;;;;;;;;;;;5082055;28;20391;-68
2021/12/16 03:13:09;;;;;;;;;;;;;;;;;;5079572;28;19928;-68
2021/12/16 03:18:48;;;;;;;;;;;;;;;;;;5085279;28;20634;-68
2021/12/16 03:21:25;;;;;;;;;;;;;;;;;;5085732;28;19924;-68
2021/12/16 03:36:05;;;;;;;;;;;;;;;;;;5080046;28;19924;-68
2021/12/16 03:38:14;;;;;;;;;;;;;;;;;;5081726;28;19935;-68
2021/12/16 03:40:42;;;;;;;;;;;;;;;;;;5090260;28;19976;-68
2021/12/16 03:43:13;;;;;;;;;;;;;;;;;;5091401;28;19928;-68
2021/12/16 03:48:34;;;;;;;;;;;;;;;;;;5071631;28;19927;-68
2021/12/16 03:51:04;;;;;;;;;;;;;;;;;;5084375;28;19924;-68
2021/12/16 03:53:34;;;;;;;;;;;;;;;;;;5062623;28;19932;-68
2021/12/16 03:56:05;;;;;;;;;;;;;;;;;;5068478;28;19925;-68
2021/12/16 03:58:38;;;;;;;;;;;;;;;;;;5086714;28;19928;-68
2021/12/16 04:01:11;;;;;;;;;;;;;;;;;;5084552;28;19924;-68
2021/12/16 04:03:40;;;;;;;;;;;;;;;;;;5082813;28;19924;-68
2021/12/16 04:06:09;;;;;;;;;;;;;;;;;;5084072;28;19992;-68
2021/12/16 04:08:39;;;;;;;;;;;;;;;;;;5086736;28;19924;-68
2021/12/16 04:11:10;;;;;;;;;;;;;;;;;;5078940;28;19924;-68
2021/12/16 04:13:59;;;;;;;;;;;;;;;;;;5081188;28;21353;-68
2021/12/16 04:16:34;;;;;;;;;;;;;;;;;;5096059;28;19931;-68
2021/12/16 04:19:07;;;;;;;;;;;;;;;;;;5082352;28;19924;-68
2021/12/16 04:21:41;;;;;;;;;;;;;;;;;;5085276;28;19923;-68
2021/12/16 04:24:13;;;;;;;;;;;;;;;;;;5084908;28;19924;-68
2021/12/16 04:26:42;;;;;;;;;;;;;;;;;;5075340;28;19932;-68
2021/12/16 04:29:11;;;;;;;;;;;;;;;;;;5089598;28;19928;-68
2021/12/16 04:31:42;;;;;;;;;;;;;;;;;;5092536;28;20382;-68
2021/12/16 04:34:10;;;;;;;;;;;;;;;;;;5090460;28;19928;-68
2021/12/16 04:36:44;;;;;;;;;;;;;;;;;;5085334;28;20018;-68
2021/12/16 04:39:15;;;;;;;;;;;;;;;;;;5083809;28;19928;-68
2021/12/16 04:41:46;;;;;;;;;;;;;;;;;;5085320;28;19939;-68
2021/12/16 04:44:15;;;;;;;;;;;;;;;;;;5086132;28;19935;-68
2021/12/16 04:46:45;;;;;;;;;;;;;;;;;;5082153;28;20392;-68
2021/12/16 04:49:18;;;;;;;;;;;;;;;;;;5087760;28;20476;-68
2021/12/16 04:51:48;;;;;;;;;;;;;;;;;;5087448;28;19935;-68
2021/12/16 04:54:17;;;;;;;;;;;;;;;;;;5084194;28;19934;-69
2021/12/16 04:56:49;;;;;;;;;;;;;;;;;;5093432;28;20586;-69
2021/12/16 04:59:17;;;;;;;;;;;;;;;;;;5082577;28;20358;-69
2021/12/16 05:01:48;;;;;;;;;;;;;;;;;;5086924;28;20421;-69
2021/12/16 05:04:27;;;;;;;;;;;;;;;;;;5084820;28;19932;-68
2021/12/16 05:06:57;;;;;;;;;;;;;;;;;;5085673;28;19928;-68
2021/12/16 05:12:14;;;;;;;;;;;;;;;;;;5081981;28;19940;-68
2021/12/16 05:14:44;;;;;;;;;;;;;;;;;;5082626;28;19977;-68
2021/12/16 05:17:37;;;;;;;;;;;;;;;;;;5085329;28;19928;-69
2021/12/16 05:20:09;;;;;;;;;;;;;;;;;;5084423;28;19924;-68
2021/12/16 05:25:40;;;;;;;;;;;;;;;;;;5086538;28;19935;-68
2021/12/16 05:28:10;;;;;;;;;;;;;;;;;;5087451;28;19924;-68
2021/12/16 05:30:40;;;;;;;;;;;;;;;;;;5085633;28;20270;-68
2021/12/16 05:33:10;;;;;;;;;;;;;;;;;;5084298;28;20352;-68
2021/12/16 05:35:39;;;;;;;;;;;;;;;;;;5082965;28;19935;-68
2021/12/16 05:38:11;;;;;;;;;;;;;;;;;;5082454;28;19924;-68
2021/12/16 05:40:40;;;;;;;;;;;;;;;;;;5073408;28;19934;-68
2021/12/16 05:43:09;;;;;;;;;;;;;;;;;;5082641;28;20600;-69
2021/12/16 05:45:38;;;;;;;;;;;;;;;;;;5087106;28;19927;-69
2021/12/16 05:48:09;;;;;;;;;;;;;;;;;;5083356;28;19962;-68
2021/12/16 05:50:36;;;;;;;;;;;;;;;;;;5087309;28;19932;-68
2021/12/16 05:53:06;;;;;;;;;;;;;;;;;;5083678;28;19932;-68
2021/12/16 05:55:36;;;;;;;;;;;;;;;;;;5086286;28;20265;-69
2021/12/16 05:58:07;;;;;;;;;;;;;;;;;;5061271;28;19957;-68
2021/12/16 06:00:40;;;;;;;;;;;;;;;;;;5083496;28;20456;-69
2021/12/16 06:03:10;;;;;;;;;;;;;;;;;;5093537;28;19936;-68
2021/12/16 06:05:39;;;;;;;;;;;;;;;;;;5066097;28;20006;-68
2021/12/16 06:08:10;;;;;;;;;;;;;;;;;;5090602;28;20265;-69
2021/12/16 06:11:23;;;;;;;;;;;;;;;;;;5082838;28;19928;-68
2021/12/16 06:13:47;;;;;;;;;;;;;;;;;;5075772;28;19924;-67
2021/12/16 06:27:30;;;;;;;;;;;;;;;;;;5085677;28;19932;-68
2021/12/16 06:29:59;;;;;;;;;;;;;;;;;;5085158;28;19936;-67
2021/12/16 06:32:28;;;;;;;;;;;;;;;;;;5084009;28;19970;-67
2021/12/16 06:34:57;;;;;;;;;;;;;;;;;;5075337;28;20534;-67
2021/12/16 06:37:26;;;;;;;;;;;;;;;;;;5082264;28;19931;-67
2021/12/16 06:39:56;;;;;;;;;;;;;;;;;;5086357;28;19928;-67
2021/12/16 06:42:25;;;;;;;;;;;;;;;;;;5088002;28;20011;-67
2021/12/16 06:45:04;;;;;;;;;;;;;;;;;;5080576;28;19928;-67
2021/12/16 06:47:53;;;;;;;;;;;;;;;;;;5086573;28;20028;-67
2021/12/16 06:53:44;;;;;;;;;;;;;;;;;;5087317;28;19936;-67
2021/12/16 06:56:24;;;;;;;;;;;;;;;;;;5086081;28;19932;-68
2021/12/16 06:59:26;;;;;;;;;;;;;;;;;;5081979;28;20461;-68
2021/12/16 07:04:57;;;;;;;;;;;;;;;;;;5046718;28;20524;-68
2021/12/16 07:07:26;;;;;;;;;;;;;;;;;;5087327;28;19939;-68
2021/12/16 07:09:57;;;;;;;;;;;;;;;;;;5087089;28;20004;-68
2021/12/16 07:12:35;;;;;;;;;;;;;;;;;;5071807;28;19977;-68
2021/12/16 07:15:04;;;;;;;;;;;;;;;;;;5080661;28;19928;-67
2021/12/16 07:17:35;;;;;;;;;;;;;;;;;;5083385;28;19924;-67
2021/12/16 07:20:11;;;;;;;;;;;;;;;;;;5086208;28;20237;-67
2021/12/16 07:22:40;;;;;;;;;;;;;;;;;;5085072;28;19924;-67
2021/12/16 07:25:09;;;;;;;;;;;;;;;;;;5083136;28;20080;-68
2021/12/16 07:27:58;;;;;;;;;;;;;;;;;;5061143;28;19943;-68
2021/12/16 07:30:44;;;;;;;;;;;;;;;;;;5089310;28;19931;-69
2021/12/16 07:33:30;;;;;;;;;;;;;;;;;;5084097;28;19967;-69
2021/12/16 07:36:16;;;;;;;;;;;;;;;;;;5099712;28;19924;-69
2021/12/16 07:38:56;;;;;;;;;;;;;;;;;;5082452;28;19924;-69
2021/12/16 07:41:31;;;;;;;;;;;;;;;;;;5086923;28;20001;-70
2021/12/16 07:44:11;;;;;;;;;;;;;;;;;;5083433;28;20328;-70
2021/12/16 07:46:41;;;;;;;;;;;;;;;;;;5084684;28;19935;-70
2021/12/16 07:49:09;;;;;;;;;;;;;;;;;;5085216;28;19931;-70
2021/12/16 07:51:40;;;;;;;;;;;;;;;;;;5078419;28;19936;-73
2021/12/16 07:54:13;;;;;;;;;;;;;;;;;;5079979;28;20239;-72
2021/12/16 07:56:41;;;;;;;;;;;;;;;;;;5056071;28;19935;-73
2021/12/16 07:59:14;;;;;;;;;;;;;;;;;;5072615;28;19924;-71
2021/12/16 08:01:41;;;;;;;;;;;;;;;;;;5062590;28;19951;-70
2021/12/16 08:04:19;;;;;;;;;;;;;;;;;;5078061;28;19928;-70
2021/12/16 08:06:48;;;;;;;;;;;;;;;;;;5062944;28;19935;-70
2021/12/16 08:09:19;;;;;;;;;;;;;;;;;;5076824;28;19928;-70
2021/12/16 08:11:50;;;;;;;;;;;;;;;;;;5065708;28;19931;-72
2021/12/16 08:14:31;;;;;;;;;;;;;;;;;;5049020;28;20266;-71
2021/12/16 08:17:02;;;;;;;;;;;;;;;;;;5056877;28;20301;-70
2021/12/16 08:19:33;;;;;;;;;;;;;;;;;;5061454;28;19924;-68
2021/12/16 08:22:04;;;;;;;;;;;;;;;;;;5067791;28;19977;-68
2021/12/16 08:24:37;;;;;;;;;;;;;;;;;;5068066;28;19932;-68
2021/12/16 08:27:07;;;;;;;;;;;;;;;;;;5062821;28;19988;-70
2021/12/16 08:29:36;;;;;;;;;;;;;;;;;;5067462;28;19924;-69
2021/12/16 08:32:06;;;;;;;;;;;;;;;;;;5069031;28;20344;-69
2021/12/16 08:34:39;;;;;;;;;;;;;;;;;;5057567;28;20064;-68
2021/12/16 08:37:18;;;;;;;;;;;;;;;;;;5066453;28;19924;-68
2021/12/16 08:39:50;;;;;;;;;;;;;;;;;;5066827;28;19924;-68
2021/12/16 08:42:25;;;;;;;;;;;;;;;;;;5068567;28;19928;-68
2021/12/16 08:44:56;;;;;;;;;;;;;;;;;;5059511;28;19931;-70
2021/12/16 08:47:27;;;;;;;;;;;;;;;;;;5064861;28;20553;-74
2021/12/16 08:49:56;;;;;;;;;;;;;;;;;;5052369;28;20473;-67
2021/12/16 08:52:27;;;;;;;;;;;;;;;;;;5061634;28;19927;-71
2021/12/16 08:54:56;;;;;;;;;;;;;;;;;;5060493;28;19924;-69
2021/12/16 08:57:26;;;;;;;;;;;;;;;;;;5070214;28;20364;-68
2021/12/16 08:59:57;;;;;;;;;;;;;;;;;;5067753;28;19924;-68
2021/12/16 09:02:26;;;;;;;;;;;;;;;;;;5066545;28;19928;-71
2021/12/16 09:04:54;;;;;;;;;;;;;;;;;;5064231;28;19949;-70
2021/12/16 09:07:29;;;;;;;;;;;;;;;;;;5068692;28;20022;-69
2021/12/16 09:09:59;;;;;;;;;;;;;;;;;;5064591;28;19932;-73
2021/12/16 09:12:51;;;;;;;;;;;;;;;;;;5067567;28;20401;-72
2021/12/16 09:15:32;;;;;;;;;;;;;;;;;;5065339;28;19932;-69
2021/12/16 09:18:04;;;;;;;;;;;;;;;;;;5068199;28;19932;-69
2021/12/16 09:20:35;;;;;;;;;;;;;;;;;;5067577;28;19993;-69
2021/12/16 09:23:05;;;;;;;;;;;;;;;;;;5065250;28;19973;-70
2021/12/16 09:25:37;;;;;;;;;;;;;;;;;;5036876;28;20015;-68
2021/12/16 09:28:07;;;;;;;;;;;;;;;;;;5077841;28;19932;-70
2021/12/16 09:30:37;;;;;;;;;;;;;;;;;;5064516;28;20321;-69
2021/12/16 09:33:12;;;;;;;;;;;;;;;;;;5046932;28;19939;-69
2021/12/16 09:35:44;;;;;;;;;;;;;;;;;;5058474;28;19928;-69
2021/12/16 09:38:15;;;;;;;;;;;;;;;;;;5082478;28;19935;-69
2021/12/16 09:40:53;;;;;;;;;;;;;;;;;;5063177;28;19929;-68
2021/12/16 09:43:22;;;;;;;;;;;;;;;;;;5048828;28;20006;-68
2021/12/16 09:45:57;;;;;;;;;;;;;;;;;;5064311;28;21312;-68
2021/12/16 09:48:25;;;;;;;;;;;;;;;;;;5084703;28;19935;-69
2021/12/16 09:50:54;;;;;;;;;;;;;;;;;;5063338;28;19932;-71
2021/12/16 09:53:37;;;;;;;;;;;;;;;;;;5064990;28;19935;-72
2021/12/16 09:56:08;;;;;;;;;;;;;;;;;;5067194;28;19924;-67
2021/12/16 09:58:40;;;;;;;;;;;;;;;;;;5064604;28;19928;-67
2021/12/16 10:01:13;;;;;;;;;;;;;;;;;;5066070;28;19932;-68
2021/12/16 10:03:43;;;;;;;;;;;;;;;;;;5062617;28;19928;-70
2021/12/16 10:06:15;;;;;;;;;;;;;;;;;;5067118;28;19932;-70
2021/12/16 10:09:04;;;;;;;;;;;;;;;;;;5062318;28;19986;-69
2021/12/16 10:11:35;;;;;;;;;;;;;;;;;;5065071;28;20049;-70
2021/12/16 10:14:19;;;;;;;;;;;;;;;;;;5054784;28;19938;-70
2021/12/16 10:19:39;;;;;;;;;;;;;;;;;;5051496;28;19939;-69
2021/12/16 10:22:09;;;;;;;;;;;;;;;;;;5065050;28;20243;-71
2021/12/16 10:24:36;;;;;;;;;;;;;;;;;;5051750;28;19924;-71
2021/12/16 10:27:05;;;;;;;;;;;;;;;;;;5062086;28;19928;-69
2021/12/16 10:29:36;;;;;;;;;;;;;;;;;;5065199;28;19952;-69
2021/12/16 10:32:06;;;;;;;;;;;;;;;;;;5063205;28;20474;-73
2021/12/16 10:34:36;;;;;;;;;;;;;;;;;;5055305;28;19936;-70
2021/12/16 10:37:07;;;;;;;;;;;;;;;;;;5061457;28;19928;-69
2021/12/16 10:39:36;;;;;;;;;;;;;;;;;;5060531;28;19924;-68
2021/12/16 10:42:07;;;;;;;;;;;;;;;;;;5066255;28;20293;-71
2021/12/16 10:44:37;;;;;;;;;;;;;;;;;;5065945;28;19924;-70
2021/12/16 10:47:06;;;;;;;;;;;;;;;;;;5065788;28;20266;-69
2021/12/16 10:49:35;;;;;;;;;;;;;;;;;;5061643;28;19936;-70
2021/12/16 10:52:05;;;;;;;;;;;;;;;;;;5082736;28;20409;-70
2021/12/16 10:54:40;;;;;;;;;;;;;;;;;;5087956;28;19934;-70
2021/12/16 10:57:10;;;;;;;;;;;;;;;;;;5086129;28;19932;-70
2021/12/16 10:59:39;;;;;;;;;;;;;;;;;;5088763;28;20130;-70
2021/12/16 11:02:10;;;;;;;;;;;;;;;;;;5083706;28;20348;-71
2021/12/16 11:04:44;;;;;;;;;;;;;;;;;;5086494;28;19996;-70
2021/12/16 11:07:13;;;;;;;;;;;;;;;;;;5084470;28;19928;-72
2021/12/16 11:09:44;;;;;;;;;;;;;;;;;;5085071;28;19924;-71
2021/12/16 11:12:27;;;;;;;;;;;;;;;;;;5070201;28;19929;-70
2021/12/16 11:14:56;;;;;;;;;;;;;;;;;;5048541;28;19931;-71
2021/12/16 11:17:32;;;;;;;;;;;;;;;;;;5081729;28;19927;-70
2021/12/16 11:20:03;;;;;;;;;;;;;;;;;;5072523;28;19933;-72
2021/12/16 11:22:34;;;;;;;;;;;;;;;;;;5061285;28;19940;-69
2021/12/16 11:25:07;;;;;;;;;;;;;;;;;;5078956;28;19932;-75
2021/12/16 11:27:37;;;;;;;;;;;;;;;;;;5083501;28;19924;-75
2021/12/16 11:30:08;;;;;;;;;;;;;;;;;;5080377;28;19931;-69
2021/12/16 11:32:37;;;;;;;;;;;;;;;;;;5085545;28;19932;-68
2021/12/16 11:35:07;;;;;;;;;;;;;;;;;;5083774;28;19947;-71
2021/12/16 11:37:38;;;;;;;;;;;;;;;;;;5053679;28;20342;-68
2021/12/16 11:40:11;;;;;;;;;;;;;;;;;;5084069;28;20413;-70
2021/12/16 11:42:40;;;;;;;;;;;;;;;;;;5090177;28;20376;-72
2021/12/16 11:45:09;;;;;;;;;;;;;;;;;;5085047;28;20316;-69
2021/12/16 11:47:40;;;;;;;;;;;;;;;;;;5087503;28;19936;-68
2021/12/16 11:50:10;;;;;;;;;;;;;;;;;;5082027;28;19928;-70
2021/12/16 11:52:44;;;;;;;;;;;;;;;;;;5093451;28;19923;-70
2021/12/16 11:55:19;;;;;;;;;;;;;;;;;;5080973;28;19934;-68
2021/12/16 11:57:51;;;;;;;;;;;;;;;;;;5085748;28;19977;-69
2021/12/16 12:00:23;;;;;;;;;;;;;;;;;;5085554;28;20048;-68
2021/12/16 12:02:54;;;;;;;;;;;;;;;;;;5080908;28;19924;-69
2021/12/16 12:05:26;;;;;;;;;;;;;;;;;;5087396;28;19924;-69
2021/12/16 12:07:56;;;;;;;;;;;;;;;;;;5086123;28;19934;-70
2021/12/16 12:10:32;;;;;;;;;;;;;;;;;;5087660;28;19924;-69
2021/12/16 12:13:10;;;;;;;;;;;;;;;;;;5082081;28;19928;-69
2021/12/16 12:15:37;;;;;;;;;;;;;;;;;;5068197;28;19935;-68
2021/12/16 12:18:06;;;;;;;;;;;;;;;;;;5083678;28;19931;-71
2021/12/16 12:20:36;;;;;;;;;;;;;;;;;;5064670;28;20266;-68
2021/12/16 12:23:05;;;;;;;;;;;;;;;;;;5076429;28;19932;-70
2021/12/16 12:25:37;;;;;;;;;;;;;;;;;;5083960;28;19935;-70
2021/12/16 12:28:08;;;;;;;;;;;;;;;;;;5088896;28;20257;-70
2021/12/16 12:30:38;;;;;;;;;;;;;;;;;;5087066;28;19936;-68
2021/12/16 12:33:09;;;;;;;;;;;;;;;;;;5082413;28;20000;-70
2021/12/16 12:35:40;;;;;;;;;;;;;;;;;;5089487;28;19924;-72
2021/12/16 12:38:08;;;;;;;;;;;;;;;;;;5080786;28;19936;-72
2021/12/16 12:40:40;;;;;;;;;;;;;;;;;;5081675;28;19924;-72
2021/12/16 12:43:09;;;;;;;;;;;;;;;;;;5082245;28;20148;-72
2021/12/16 12:45:41;;;;;;;;;;;;;;;;;;5088443;28;19929;-72
2021/12/16 12:48:10;;;;;;;;;;;;;;;;;;5084331;28;19924;-72
2021/12/16 12:50:39;;;;;;;;;;;;;;;;;;5073590;28;19924;-70
2021/12/16 12:53:11;;;;;;;;;;;;;;;;;;5085894;28;19935;-70
2021/12/16 12:55:59;;;;;;;;;;;;;;;;;;5085766;28;19934;-71
2021/12/16 12:58:33;;;;;;;;;;;;;;;;;;5083241;28;19924;-71
2021/12/16 13:01:19;;;;;;;;;;;;;;;;;;5077514;28;19931;-71
2021/12/16 13:03:50;;;;;;;;;;;;;;;;;;5081928;28;20354;-74
2021/12/16 13:06:26;;;;;;;;;;;;;;;;;;5085807;28;19932;-74
2021/12/16 13:09:03;;;;;;;;;;;;;;;;;;5082845;28;20362;-71
2021/12/16 13:11:36;;;;;;;;;;;;;;;;;;5086600;28;20044;-72
2021/12/16 13:14:16;;;;;;;;;;;;;;;;;;5082630;28;19939;-74
2021/12/16 13:17:33;;;;;;;;;;;;;;;;;;5084370;28;20095;-72
2021/12/16 13:26:17;;;;;;;;;;;;;;;;;;5081749;28;19939;-74
2021/12/16 13:28:57;;;;;;;;;;;;;;;;;;5078227;28;19932;-73
2021/12/16 13:31:26;;;;;;;;;;;;;;;;;;5081046;28;20368;-77
2021/12/16 13:33:59;;;;;;;;;;;;;;;;;;5076291;28;19931;-72
2021/12/16 13:36:31;;;;;;;;;;;;;;;;;;5082281;28;19932;-72
2021/12/16 13:39:03;;;;;;;;;;;;;;;;;;5074315;28;19932;-71
2021/12/16 13:41:36;;;;;;;;;;;;;;;;;;5069649;28;19924;-72
2021/12/16 13:44:10;;;;;;;;;;;;;;;;;;5083834;28;19931;-71
2021/12/16 13:46:45;;;;;;;;;;;;;;;;;;5083903;28;19947;-70
2021/12/16 13:58:37;;;;;;;;;;;;;;;;;;5087259;28;19928;-69
2021/12/16 14:01:27;;;;;;;;;;;;;;;;;;5019118;28;19944;-72
2021/12/16 14:04:14;;;;;;;;;;;;;;;;;;5017873;28;19929;-72
2021/12/16 14:07:00;;;;;;;;;;;;;;;;;;5023131;28;19929;-72
2021/12/16 14:09:36;;;;;;;;;;;;;;;;;;5022962;28;19964;-71
2021/12/16 14:15:10;;;;;;;;;;;;;;;;;;5017642;28;19924;-74
2021/12/16 14:23:28;;;;;;;;;;;;;;;;;;5022276;28;19933;-73
2021/12/16 14:26:16;;;;;;;;;;;;;;;;;;5018800;28;19959;-75
2021/12/16 14:37:21;;;;;;;;;;;;;;;;;;5080428;28;19960;-69
2021/12/16 14:40:22;;;;;;;;;;;;;;;;;;5083147;28;20006;-69
2021/12/16 14:43:30;;;;;;;;;;;;;;;;;;5079643;28;19924;-69
2021/12/16 14:46:06;;;;;;;;;;;;;;;;;;5082180;28;20188;-68
2021/12/16 14:48:54;;;;;;;;;;;;;;;;;;5073378;28;20316;-68
2021/12/16 14:51:22;;;;;;;;;;;;;;;;;;5083482;28;20013;-69
2021/12/16 14:53:51;;;;;;;;;;;;;;;;;;5077586;28;19928;-70
2021/12/16 14:56:24;;;;;;;;;;;;;;;;;;5062232;28;19932;-68
2021/12/16 14:58:53;;;;;;;;;;;;;;;;;;5078808;28;19928;-68
2021/12/16 15:01:22;;;;;;;;;;;;;;;;;;5079714;28;19924;-70
2021/12/16 15:03:52;;;;;;;;;;;;;;;;;;5083047;28;19933;-70
2021/12/16 15:06:26;;;;;;;;;;;;;;;;;;5080981;28;19928;-69
2021/12/16 15:09:06;;;;;;;;;;;;;;;;;;5080835;28;19943;-68
2021/12/16 15:11:47;;;;;;;;;;;;;;;;;;5064906;28;19928;-69
2021/12/16 15:14:20;;;;;;;;;;;;;;;;;;5071724;28;19934;-69
2021/12/16 15:17:08;;;;;;;;;;;;;;;;;;5082904;28;19985;-68
2021/12/16 15:44:46;;;;;;;;;;;;;;;;;;5085657;28;20326;-70
2021/12/16 15:47:17;;;;;;;;;;;;;;;;;;5087870;28;19924;-69
2021/12/16 15:49:49;;;;;;;;;;;;;;;;;;5084050;28;20302;-67
2021/12/16 15:52:18;;;;;;;;;;;;;;;;;;5091219;28;19931;-68
2021/12/16 15:54:49;;;;;;;;;;;;;;;;;;5083637;28;20489;-68
2021/12/16 15:57:21;;;;;;;;;;;;;;;;;;5088059;28;19932;-69
2021/12/16 15:59:54;;;;;;;;;;;;;;;;;;5082578;28;19924;-68
2021/12/16 16:02:24;;;;;;;;;;;;;;;;;;5083640;28;19924;-68
2021/12/16 16:04:51;;;;;;;;;;;;;;;;;;5061267;28;19928;-67
2021/12/16 16:07:20;;;;;;;;;;;;;;;;;;5086435;28;19924;-68
2021/12/16 16:09:51;;;;;;;;;;;;;;;;;;5085260;28;20334;-68
2021/12/16 16:12:24;;;;;;;;;;;;;;;;;;5086259;28;19942;-69
2021/12/16 16:14:59;;;;;;;;;;;;;;;;;;5081664;28;19924;-69
2021/12/16 16:17:39;;;;;;;;;;;;;;;;;;5083466;28;20360;-68
2021/12/16 16:20:08;;;;;;;;;;;;;;;;;;5085123;28;19939;-69
2021/12/16 16:22:38;;;;;;;;;;;;;;;;;;5077441;28;20316;-69
2021/12/16 16:25:08;;;;;;;;;;;;;;;;;;5082742;28;19923;-70
2021/12/16 16:27:39;;;;;;;;;;;;;;;;;;5086617;28;19935;-70
2021/12/16 16:30:10;;;;;;;;;;;;;;;;;;5080767;28;19924;-70
2021/12/16 16:32:39;;;;;;;;;;;;;;;;;;5085924;28;19924;-71
2021/12/16 16:35:15;;;;;;;;;;;;;;;;;;5065490;28;19955;-69
2021/12/16 16:37:48;;;;;;;;;;;;;;;;;;5080933;28;19939;-68
2021/12/16 16:40:17;;;;;;;;;;;;;;;;;;5086127;28;19924;-69
2021/12/16 16:42:48;;;;;;;;;;;;;;;;;;5081864;28;20425;-69
2021/12/16 16:45:21;;;;;;;;;;;;;;;;;;5085353;28;19932;-68
2021/12/16 16:47:53;;;;;;;;;;;;;;;;;;5082916;28;19931;-69
2021/12/16 16:50:25;;;;;;;;;;;;;;;;;;5081917;28;19930;-69
2021/12/16 16:52:56;;;;;;;;;;;;;;;;;;5080469;28;20400;-68
2021/12/16 16:55:26;;;;;;;;;;;;;;;;;;5080610;28;19934;-68
2021/12/16 16:58:01;;;;;;;;;;;;;;;;;;5084180;28;19977;-69
2021/12/16 17:00:32;;;;;;;;;;;;;;;;;;5088197;28;19931;-68
2021/12/16 17:03:03;;;;;;;;;;;;;;;;;;5078174;28;19925;-69
2021/12/16 17:05:36;;;;;;;;;;;;;;;;;;5086722;28;20515;-72
2021/12/16 17:08:04;;;;;;;;;;;;;;;;;;5084542;28;19928;-74
2021/12/16 17:10:44;;;;;;;;;;;;;;;;;;5077867;28;19971;-74
2021/12/16 17:18:43;;;;;;;;;;;;;;;;;;5080475;28;19973;-74
2021/12/16 17:21:13;;;;;;;;;;;;;;;;;;5091103;28;19928;-74
2021/12/16 17:23:42;;;;;;;;;;;;;;;;;;5077214;28;20343;-74
2021/12/16 17:26:27;;;;;;;;;;;;;;;;;;5070382;28;20031;-73
2021/12/16 17:28:59;;;;;;;;;;;;;;;;;;5083539;28;19924;-73
2021/12/16 17:31:31;;;;;;;;;;;;;;;;;;5086188;28;20370;-73
2021/12/16 17:34:02;;;;;;;;;;;;;;;;;;5075109;28;19924;-73
2021/12/16 17:36:32;;;;;;;;;;;;;;;;;;5072569;28;20667;-74
2021/12/16 17:39:03;;;;;;;;;;;;;;;;;;5079080;28;20123;-74
2021/12/16 17:41:31;;;;;;;;;;;;;;;;;;5084730;28;19924;-74
2021/12/16 17:43:59;;;;;;;;;;;;;;;;;;5086088;28;20324;-74
2021/12/16 17:46:31;;;;;;;;;;;;;;;;;;5093213;28;19924;-74
2021/12/16 17:49:02;;;;;;;;;;;;;;;;;;5078240;28;20748;-73
2021/12/16 17:51:37;;;;;;;;;;;;;;;;;;5075212;28;19924;-74
2021/12/16 17:54:05;;;;;;;;;;;;;;;;;;5085219;28;19928;-74
2021/12/16 17:56:36;;;;;;;;;;;;;;;;;;5059438;28;19924;-74
2021/12/16 17:59:05;;;;;;;;;;;;;;;;;;5082487;28;19924;-74
2021/12/16 18:01:36;;;;;;;;;;;;;;;;;;5088221;28;20026;-74
2021/12/16 18:04:06;;;;;;;;;;;;;;;;;;5087545;28;19932;-74
2021/12/16 18:06:34;;;;;;;;;;;;;;;;;;5080850;28;19932;-74
2021/12/16 18:09:05;;;;;;;;;;;;;;;;;;5080137;28;19947;-74
2021/12/16 18:11:33;;;;;;;;;;;;;;;;;;5079098;28;19924;-74
2021/12/16 18:14:03;;;;;;;;;;;;;;;;;;5080216;28;20284;-74
2021/12/16 18:16:34;;;;;;;;;;;;;;;;;;5072817;28;19924;-74
2021/12/16 18:19:05;;;;;;;;;;;;;;;;;;5063315;28;19930;-74
2021/12/16 18:21:39;;;;;;;;;;;;;;;;;;5078994;28;19985;-74
2021/12/16 18:24:06;;;;;;;;;;;;;;;;;;5083193;28;20248;-74
2021/12/16 18:26:37;;;;;;;;;;;;;;;;;;5075688;28;20043;-74
2021/12/16 18:29:09;;;;;;;;;;;;;;;;;;5082425;28;19924;-74
2021/12/16 18:31:53;;;;;;;;;;;;;;;;;;5069469;28;19968;-74
2021/12/16 18:34:27;;;;;;;;;;;;;;;;;;5083718;28;20529;-74
2021/12/16 18:36:58;;;;;;;;;;;;;;;;;;5071780;28;19928;-73
2021/12/16 18:39:28;;;;;;;;;;;;;;;;;;5085578;28;19930;-74
2021/12/16 18:41:59;;;;;;;;;;;;;;;;;;5083026;28;19935;-74
2021/12/16 18:44:30;;;;;;;;;;;;;;;;;;5078680;28;19936;-74
2021/12/16 18:47:07;;;;;;;;;;;;;;;;;;5076575;28;19928;-74
2021/12/16 18:49:51;;;;;;;;;;;;;;;;;;5079626;28;20404;-74
2021/12/16 18:55:03;;;;;;;;;;;;;;;;;;5076312;28;19928;-74
2021/12/16 18:57:34;;;;;;;;;;;;;;;;;;5077997;28;19936;-74
2021/12/16 19:00:06;;;;;;;;;;;;;;;;;;5079816;28;19939;-74
2021/12/16 19:02:35;;;;;;;;;;;;;;;;;;5078857;28;19924;-74
2021/12/16 19:05:06;;;;;;;;;;;;;;;;;;5078742;28;19935;-73
2021/12/16 19:07:39;;;;;;;;;;;;;;;;;;5062587;28;19935;-74
2021/12/16 19:10:10;;;;;;;;;;;;;;;;;;5082232;28;20373;-74
2021/12/16 19:12:37;;;;;;;;;;;;;;;;;;5081863;28;19924;-74
2021/12/16 19:15:07;;;;;;;;;;;;;;;;;;5056413;28;19943;-74
2021/12/16 19:17:38;;;;;;;;;;;;;;;;;;5082350;28;19935;-74
2021/12/16 19:20:05;;;;;;;;;;;;;;;;;;5076844;28;19932;-74
2021/12/16 19:22:33;;;;;;;;;;;;;;;;;;5055768;28;19930;-74
2021/12/16 19:25:03;;;;;;;;;;;;;;;;;;5080125;28;25268;-74
2021/12/16 19:27:34;;;;;;;;;;;;;;;;;;5080775;28;19928;-74
2021/12/16 19:30:05;;;;;;;;;;;;;;;;;;5070798;28;19942;-73
2021/12/16 19:32:32;;;;;;;;;;;;;;;;;;5065847;28;20646;-74
2021/12/16 19:35:02;;;;;;;;;;;;;;;;;;5079862;28;20186;-74
2021/12/16 19:37:31;;;;;;;;;;;;;;;;;;5067189;28;20043;-73
2021/12/16 19:39:59;;;;;;;;;;;;;;;;;;5066121;28;19932;-74
2021/12/16 19:42:30;;;;;;;;;;;;;;;;;;5089030;28;19931;-73
2021/12/16 19:45:00;;;;;;;;;;;;;;;;;;5079166;28;19932;-73
2021/12/16 19:47:31;;;;;;;;;;;;;;;;;;5081663;28;19928;-74
2021/12/16 19:50:06;;;;;;;;;;;;;;;;;;5072180;28;19955;-73
2021/12/16 19:52:36;;;;;;;;;;;;;;;;;;5076346;28;19955;-73
2021/12/16 19:55:06;;;;;;;;;;;;;;;;;;5075717;28;19932;-73
2021/12/16 19:57:40;;;;;;;;;;;;;;;;;;5071176;28;19928;-74
2021/12/16 20:00:09;;;;;;;;;;;;;;;;;;5080013;28;19928;-73
2021/12/16 20:02:39;;;;;;;;;;;;;;;;;;5076988;28;19931;-73
2021/12/16 20:05:09;;;;;;;;;;;;;;;;;;5082882;28;19928;-73
2021/12/16 20:07:38;;;;;;;;;;;;;;;;;;5082950;28;20326;-73
2021/12/16 20:10:07;;;;;;;;;;;;;;;;;;5083872;28;19927;-73
2021/12/16 20:12:35;;;;;;;;;;;;;;;;;;5084452;28;20371;-73
2021/12/16 20:15:14;;;;;;;;;;;;;;;;;;5082916;28;19924;-73
2021/12/16 20:17:44;;;;;;;;;;;;;;;;;;5086765;28;20606;-73
2021/12/16 20:20:16;;;;;;;;;;;;;;;;;;5079387;28;19928;-73
2021/12/16 20:22:44;;;;;;;;;;;;;;;;;;5080574;28;20012;-73
2021/12/16 20:25:12;;;;;;;;;;;;;;;;;;5073171;28;19928;-73
2021/12/16 20:27:41;;;;;;;;;;;;;;;;;;5081844;28;19938;-73
2021/12/16 20:30:09;;;;;;;;;;;;;;;;;;5074557;28;19977;-73
2021/12/16 20:32:41;;;;;;;;;;;;;;;;;;5084791;28;19928;-73
2021/12/16 20:35:12;;;;;;;;;;;;;;;;;;5084718;28;19925;-73
2021/12/16 20:37:41;;;;;;;;;;;;;;;;;;5082382;28;19932;-73
2021/12/16 20:40:10;;;;;;;;;;;;;;;;;;5077153;28;19928;-73
2021/12/16 20:42:41;;;;;;;;;;;;;;;;;;5083030;28;19928;-74
2021/12/16 20:45:12;;;;;;;;;;;;;;;;;;5079318;28;20270;-74
2021/12/16 20:47:43;;;;;;;;;;;;;;;;;;5089825;28;20239;-74
2021/12/16 20:50:22;;;;;;;;;;;;;;;;;;5080821;28;20246;-74
2021/12/16 20:52:54;;;;;;;;;;;;;;;;;;5085384;28;19936;-74
2021/12/16 20:55:28;;;;;;;;;;;;;;;;;;5084297;28;19924;-73
2021/12/16 20:57:59;;;;;;;;;;;;;;;;;;5077629;28;19936;-73
2021/12/16 21:00:28;;;;;;;;;;;;;;;;;;5085136;28;20542;-73
2021/12/16 21:02:58;;;;;;;;;;;;;;;;;;5079092;28;19924;-73
2021/12/16 21:05:25;;;;;;;;;;;;;;;;;;5084268;28;19928;-73
2021/12/16 21:07:54;;;;;;;;;;;;;;;;;;5084597;28;19934;-73
2021/12/16 21:10:22;;;;;;;;;;;;;;;;;;5084137;28;19972;-73
2021/12/16 21:12:51;;;;;;;;;;;;;;;;;;5080043;28;19993;-73